createdAt,value
2023-02-03T00:02:30.075Z,101513.94
2023-02-03T00:05:15.453Z,101513.22
2023-02-03T00:08:00.798Z,101512.19
2023-02-03T00:10:46.451Z,101496.19
2023-02-03T00:13:31.609Z,101500.25
2023-02-03T00:16:16.747Z,101489.81
2023-02-03T00:19:02.617Z,101482.66
2023-02-03T00:21:47.409Z,101486.75
2023-02-03T00:24:32.257Z,101475.59
2023-02-03T00:27:17.593Z,101491.88
2023-02-03T00:30:02.560Z,101493.56
2023-02-03T00:32:47.821Z,101489.97
2023-02-03T00:35:32.759Z,101475.25
2023-02-03T00:38:18.568Z,101487.34
2023-02-03T00:41:03.837Z,101495.19
2023-02-03T00:43:49.806Z,101487.63
2023-02-03T00:46:34.848Z,101490.22
2023-02-03T00:49:20.375Z,101491.16
2023-02-03T00:52:05.483Z,101479.91
2023-02-03T00:54:50.735Z,101492.13
2023-02-03T00:57:35.873Z,101497.94
2023-02-03T01:00:21.276Z,101501.41
2023-02-03T01:03:06.492Z,101489.22
2023-02-03T01:05:51.901Z,101500.38
2023-02-03T01:08:37.131Z,101492.94
2023-02-03T01:11:25.224Z,101506.69
2023-02-03T01:14:10.315Z,101518.81
2023-02-03T01:16:55.928Z,101514.53
2023-02-03T01:19:40.907Z,101499.00
2023-02-03T01:22:25.818Z,101510.19
2023-02-03T01:25:11.304Z,101506.56
2023-02-03T01:27:56.617Z,101508.38
2023-02-03T01:30:42.024Z,101504.03
2023-02-03T01:33:27.477Z,101501.53
2023-02-03T01:36:13.117Z,101505.75
2023-02-03T01:38:58.316Z,101505.00
2023-02-03T01:41:43.736Z,101506.06
2023-02-03T01:44:55.259Z,101517.16
2023-02-03T01:47:48.346Z,101505.00
2023-02-03T01:50:36.834Z,101495.66
2023-02-03T01:53:21.989Z,101490.28
2023-02-03T01:56:08.202Z,101488.59
2023-02-03T01:58:53.970Z,101483.19
2023-02-03T02:01:39.839Z,101500.50
2023-02-03T02:04:34.214Z,101484.44
2023-02-03T02:07:19.452Z,101488.72
2023-02-03T02:10:05.444Z,101478.41
2023-02-03T02:12:51.585Z,101481.00
2023-02-03T02:15:56.251Z,101463.84
2023-02-03T02:19:00.108Z,101445.81
2023-02-03T02:21:54.669Z,101434.09
2023-02-03T02:24:50.346Z,101428.88
2023-02-03T02:27:59.850Z,101411.59
2023-02-03T02:31:08.610Z,101434.72
2023-02-03T02:34:04.725Z,101420.16
2023-02-03T02:37:20.983Z,101399.47
2023-02-03T02:40:24.231Z,101386.75
2023-02-03T02:43:16.861Z,101391.00
2023-02-03T02:46:08.981Z,101385.84
2023-02-03T02:49:07.455Z,101400.31
2023-02-03T02:51:53.741Z,101400.53
2023-02-03T02:54:42.142Z,101427.88
2023-02-03T02:57:30.346Z,101426.38
2023-02-03T03:00:15.806Z,101447.09
2023-02-03T03:03:15.515Z,101453.88
2023-02-03T03:06:08.989Z,101458.34
2023-02-03T03:09:06.038Z,101453.94
2023-02-03T03:11:56.167Z,101436.78
2023-02-03T03:14:45.620Z,101439.38
2023-02-03T03:17:35.181Z,101438.41
2023-02-03T03:20:25.726Z,101430.69
2023-02-03T03:23:22.437Z,101421.16
2023-02-03T03:26:19.989Z,101405.81
2023-02-03T03:29:21.062Z,101416.06
2023-02-03T03:32:06.442Z,101427.94
2023-02-03T03:34:52.369Z,101416.88
2023-02-03T03:37:49.633Z,101398.72
2023-02-03T03:40:42.703Z,101401.50
2023-02-03T03:43:33.027Z,101411.69
2023-02-03T03:46:27.059Z,101412.53
2023-02-03T03:49:13.651Z,101411.88
2023-02-03T03:52:03.173Z,101420.34
2023-02-03T03:54:50.275Z,101409.94
2023-02-03T03:57:45.169Z,101402.19
2023-02-03T04:00:33.749Z,101397.19
2023-02-03T04:03:25.395Z,101391.13
2023-02-03T04:06:12.165Z,101391.19
2023-02-03T04:08:57.374Z,101374.91
2023-02-03T04:11:42.493Z,101366.06
2023-02-03T04:14:31.666Z,101367.78
2023-02-03T04:17:16.829Z,101375.66
2023-02-03T04:20:04.259Z,101371.31
2023-02-03T04:22:50.197Z,101374.88
2023-02-03T04:25:35.614Z,101374.03
2023-02-03T04:28:21.039Z,101368.84
2023-02-03T04:31:06.710Z,101369.00
2023-02-03T04:33:52.103Z,101365.63
2023-02-03T04:36:37.532Z,101368.09
2023-02-03T04:39:22.943Z,101370.72
2023-02-03T04:42:08.050Z,101371.47
2023-02-03T04:44:53.253Z,101382.63
2023-02-03T04:47:39.490Z,101377.56
2023-02-03T04:50:25.671Z,101374.34
2023-02-03T04:53:10.939Z,101373.41
2023-02-03T04:55:56.434Z,101362.34
2023-02-03T04:58:41.523Z,101353.00
2023-02-03T05:01:26.849Z,101331.44
2023-02-03T05:04:12.458Z,101337.44
2023-02-03T05:06:57.702Z,101335.72
2023-02-03T05:09:42.939Z,101316.06
2023-02-03T05:12:28.202Z,101322.91
2023-02-03T05:15:13.779Z,101324.59
2023-02-03T05:17:58.681Z,101316.13
2023-02-03T05:20:43.491Z,101324.59
2023-02-03T05:23:29.176Z,101328.19
2023-02-03T05:26:14.134Z,101303.31
2023-02-03T05:28:59.109Z,101320.63
2023-02-03T05:31:44.440Z,101318.69
2023-02-03T05:34:29.562Z,101325.63
2023-02-03T05:37:14.378Z,101304.19
2023-02-03T05:39:59.191Z,101317.06
2023-02-03T05:42:49.144Z,101298.81
2023-02-03T05:45:34.626Z,101282.53
2023-02-03T05:48:20.049Z,101292.06
2023-02-03T05:51:05.846Z,101301.59
2023-02-03T05:53:50.813Z,101300.50
2023-02-03T05:56:35.953Z,101297.84
2023-02-03T05:59:21.151Z,101321.34
2023-02-03T06:02:06.714Z,101322.13
2023-02-03T06:04:51.504Z,101310.03
2023-02-03T06:07:36.709Z,101312.66
2023-02-03T06:10:22.657Z,101314.28
2023-02-03T06:13:15.236Z,101316.94
2023-02-03T06:16:01.065Z,101325.63
2023-02-03T06:18:46.090Z,101318.34
2023-02-03T06:21:31.000Z,101338.88
2023-02-03T06:24:16.282Z,101322.31
2023-02-03T06:27:01.743Z,101345.25
2023-02-03T06:29:46.698Z,101358.66
2023-02-03T06:32:31.639Z,101363.69
2023-02-03T06:35:17.450Z,101364.19
2023-02-03T06:38:02.465Z,101357.34
2023-02-03T06:40:48.439Z,101358.06
2023-02-03T06:43:33.746Z,101362.38
2023-02-03T06:46:19.468Z,101360.63
2023-02-03T06:49:04.687Z,101358.84
2023-02-03T06:51:49.975Z,101364.81
2023-02-03T06:54:35.179Z,101371.59
2023-02-03T06:57:20.684Z,101365.66
2023-02-03T07:00:06.453Z,101370.06
2023-02-03T07:02:56.722Z,101370.09
2023-02-03T07:05:42.051Z,101379.59
2023-02-03T07:08:27.449Z,101391.50
2023-02-03T07:11:13.196Z,101378.78
2023-02-03T07:13:58.797Z,101369.34
2023-02-03T07:16:44.078Z,101376.00
2023-02-03T07:19:29.482Z,101374.13
2023-02-03T07:22:14.955Z,101369.84
2023-02-03T07:25:00.000Z,101366.28
2023-02-03T07:27:45.412Z,101358.56
2023-02-03T07:30:31.197Z,101355.22
2023-02-03T07:33:16.837Z,101361.00
2023-02-03T07:36:02.025Z,101364.31
2023-02-03T07:38:46.970Z,101368.78
2023-02-03T07:41:32.237Z,101366.91
2023-02-03T07:44:19.834Z,101369.66
2023-02-03T07:47:04.948Z,101363.50
2023-02-03T07:49:49.950Z,101361.75
2023-02-03T07:52:34.921Z,101349.06
2023-02-03T07:55:19.891Z,101357.84
2023-02-03T07:58:05.718Z,101353.69
2023-02-03T08:00:50.632Z,101349.59
2023-02-03T08:03:35.660Z,101341.88
2023-02-03T08:06:20.729Z,101346.13
2023-02-03T08:09:05.969Z,101345.31
2023-02-03T08:11:50.985Z,101349.50
2023-02-03T08:14:36.138Z,101344.59
2023-02-03T08:17:21.025Z,101352.44
2023-02-03T08:20:07.285Z,101350.94
2023-02-03T08:22:53.008Z,101352.66
2023-02-03T08:25:37.962Z,101363.81
2023-02-03T08:28:23.911Z,101360.44
2023-02-03T08:31:10.443Z,101351.81
2023-02-03T08:33:55.886Z,101359.50
2023-02-03T08:36:41.191Z,101358.53
2023-02-03T08:39:26.432Z,101368.03
2023-02-03T08:42:11.296Z,101357.88
2023-02-03T08:44:57.219Z,101371.53
2023-02-03T08:47:42.212Z,101364.84
2023-02-03T08:50:27.896Z,101357.16
2023-02-03T08:53:13.031Z,101357.28
2023-02-03T08:55:58.060Z,101361.75
2023-02-03T08:58:43.011Z,101361.91
2023-02-03T09:01:28.733Z,101335.63
2023-02-03T09:04:16.269Z,101332.69
2023-02-03T09:07:01.687Z,101326.75
2023-02-03T09:09:47.472Z,101331.53
2023-02-03T09:12:32.587Z,101317.06
2023-02-03T09:15:18.215Z,101304.22
2023-02-03T09:18:04.007Z,101310.38
2023-02-03T09:20:48.892Z,101296.84
2023-02-03T09:23:34.554Z,101309.78
2023-02-03T09:26:19.716Z,101320.19
2023-02-03T09:29:05.271Z,101327.13
2023-02-03T09:31:51.717Z,101325.41
2023-02-03T09:34:36.986Z,101317.69
2023-02-03T09:37:22.241Z,101316.63
2023-02-03T09:40:17.924Z,101304.63
2023-02-03T09:43:21.058Z,101334.84
2023-02-03T09:46:12.050Z,101325.47
2023-02-03T09:49:02.616Z,101321.03
2023-02-03T09:51:55.794Z,101325.34
2023-02-03T09:55:00.366Z,101308.31
2023-02-03T09:58:05.731Z,101310.06
2023-02-03T10:00:54.292Z,101310.09
2023-02-03T10:03:42.712Z,101296.41
2023-02-03T10:06:41.696Z,101298.16
2023-02-03T10:09:56.668Z,101292.03
2023-02-03T10:12:52.617Z,101297.22
2023-02-03T10:16:16.590Z,101287.16
2023-02-03T10:19:09.295Z,101301.78
2023-02-03T10:21:59.173Z,101296.53
2023-02-03T10:25:15.968Z,101309.34
2023-02-03T10:28:04.809Z,101329.16
2023-02-03T10:31:20.331Z,101333.56
2023-02-03T10:34:17.207Z,101349.66
2023-02-03T10:37:11.134Z,101352.19
2023-02-03T10:39:57.631Z,101372.69
2023-02-03T10:42:46.309Z,101378.41
2023-02-03T10:45:36.257Z,101381.13
2023-02-03T10:48:23.003Z,101380.00
2023-02-03T10:51:30.198Z,101379.97
2023-02-03T10:54:33.316Z,101372.91
2023-02-03T10:57:18.939Z,101372.97
2023-02-03T11:19:05.802Z,101374.50
2023-02-03T11:21:53.568Z,101376.00
2023-02-03T11:24:41.715Z,101371.84
2023-02-03T11:27:31.081Z,101366.81
2023-02-03T11:30:24.525Z,101374.31
2023-02-03T11:33:19.374Z,101375.34
2023-02-03T11:36:04.967Z,101377.84
2023-02-03T11:38:50.085Z,101371.06
2023-02-03T11:41:38.879Z,101381.34
2023-02-03T11:44:26.816Z,101398.75
2023-02-03T11:47:14.831Z,101391.56
2023-02-03T11:50:18.878Z,101393.22
2023-02-03T11:53:23.985Z,101393.94
2023-02-03T11:56:22.689Z,101403.38
2023-02-03T11:59:25.993Z,101405.47
2023-02-03T12:02:42.639Z,101400.09
2023-02-03T12:05:27.991Z,101408.66
2023-02-03T12:08:25.309Z,101405.13
2023-02-03T12:11:38.949Z,101418.09
2023-02-03T12:14:36.623Z,101431.19
2023-02-03T12:17:42.599Z,101439.16
2023-02-03T12:21:00.333Z,101447.63
2023-02-03T12:24:09.506Z,101456.38
2023-02-03T12:27:16.537Z,101448.59
2023-02-03T12:30:03.980Z,101463.00
2023-02-03T12:33:00.211Z,101453.56
2023-02-03T12:35:52.078Z,101448.47
2023-02-03T12:38:43.301Z,101456.44
2023-02-03T12:41:34.347Z,101442.72
2023-02-03T12:44:47.088Z,101453.22
2023-02-03T12:47:50.989Z,101438.63
2023-02-03T12:50:42.105Z,101448.53
2023-02-03T12:53:34.469Z,101431.63
2023-02-03T12:56:27.685Z,101419.53
2023-02-03T12:59:23.439Z,101423.94
2023-02-03T13:02:18.646Z,101418.09
2023-02-03T13:05:27.750Z,101422.22
2023-02-03T13:08:36.125Z,101424.94
2023-02-03T13:11:28.628Z,101423.41
2023-02-03T13:14:13.650Z,101418.00
2023-02-03T13:17:08.328Z,101417.38
2023-02-03T13:19:58.269Z,101417.47
2023-02-03T13:22:43.131Z,101391.91
2023-02-03T13:26:14.083Z,101375.03
2023-02-03T13:29:23.844Z,101361.28
2023-02-03T13:32:20.892Z,101364.72
2023-02-03T13:35:21.698Z,101386.31
2023-02-03T13:38:24.859Z,101379.41
2023-02-03T13:41:19.334Z,101382.53
2023-02-03T13:44:07.638Z,101378.59
2023-02-03T13:46:53.862Z,101369.69
2023-02-03T13:49:39.961Z,101361.25
2023-02-03T13:52:32.969Z,101363.75
2023-02-03T13:55:27.940Z,101369.53
2023-02-03T13:58:37.957Z,101366.66
2023-02-03T14:01:35.674Z,101359.78
2023-02-03T14:04:24.235Z,101357.13
2023-02-03T14:07:38.067Z,101368.44
2023-02-03T14:10:23.505Z,101371.81
2023-02-03T14:13:20.829Z,101376.22
2023-02-03T14:16:25.498Z,101400.91
2023-02-03T14:19:12.254Z,101408.53
2023-02-03T14:22:03.964Z,101393.09
2023-02-03T14:24:49.967Z,101394.81
2023-02-03T14:27:35.214Z,101382.69
2023-02-03T14:30:20.749Z,101383.56
2023-02-03T14:33:05.947Z,101371.38
2023-02-03T14:35:51.102Z,101366.94
2023-02-03T14:38:36.290Z,101387.50
2023-02-03T14:41:46.397Z,101395.41
2023-02-03T14:44:59.307Z,101376.22
2023-02-03T14:47:44.356Z,101385.78
2023-02-03T14:50:44.241Z,101373.44
2023-02-03T14:53:47.655Z,101370.22
2023-02-03T14:56:54.277Z,101374.63
2023-02-03T14:59:56.791Z,101383.72
2023-02-03T15:03:07.136Z,101397.50
2023-02-03T15:06:01.292Z,101395.16
2023-02-03T15:08:48.300Z,101416.59
2023-02-03T15:11:34.275Z,101414.97
2023-02-03T15:14:28.413Z,101436.25
2023-02-03T15:17:24.098Z,101439.69
2023-02-03T15:20:37.820Z,101444.09
2023-02-03T15:23:30.498Z,101439.91
2023-02-03T15:26:22.259Z,101446.84
2023-02-03T15:29:19.941Z,101449.88
2023-02-03T15:32:16.071Z,101449.16
2023-02-03T15:35:04.829Z,101426.88
2023-02-03T15:37:55.597Z,101419.91
2023-02-03T15:40:44.875Z,101413.69
2023-02-03T15:43:38.427Z,101393.88
2023-02-03T15:46:30.793Z,101377.38
2023-02-03T15:49:22.347Z,101349.50
2023-02-03T15:52:14.108Z,101336.84
2023-02-03T15:55:12.579Z,101326.38
2023-02-03T15:57:58.118Z,101342.81
2023-02-03T16:00:47.346Z,101354.72
2023-02-03T16:03:38.845Z,101353.69
2023-02-03T16:06:27.171Z,101357.88
2023-02-03T16:09:30.663Z,101384.50
2023-02-03T16:12:30.436Z,101417.69
2023-02-03T16:15:24.336Z,101431.50
2023-02-03T16:18:17.538Z,101451.81
2023-02-03T16:21:04.490Z,101469.13
2023-02-03T16:23:50.047Z,101495.84
2023-02-03T16:26:35.217Z,101505.06
2023-02-03T16:29:20.707Z,101503.94
2023-02-03T16:32:18.873Z,101492.81
2023-02-03T16:35:10.183Z,101507.41
2023-02-03T16:37:55.500Z,101507.28
2023-02-03T16:40:41.060Z,101522.03
2023-02-03T16:43:26.194Z,101530.38
2023-02-03T16:46:12.606Z,101538.06
2023-02-03T16:48:58.077Z,101547.53
2023-02-03T16:51:43.558Z,101552.81
2023-02-03T16:54:29.009Z,101559.59
2023-02-03T16:57:14.495Z,101568.13
2023-02-03T17:00:00.094Z,101577.09
2023-02-03T17:02:45.209Z,101567.31
2023-02-03T17:05:30.640Z,101567.53
2023-02-03T17:08:18.714Z,101568.22
2023-02-03T17:11:08.091Z,101557.72
2023-02-03T17:13:53.121Z,101556.22
2023-02-03T17:16:38.534Z,101555.78
2023-02-03T17:19:25.093Z,101539.16
2023-02-03T17:22:10.156Z,101533.06
2023-02-03T17:24:55.001Z,101541.25
2023-02-03T17:27:40.067Z,101558.53
2023-02-03T17:30:25.256Z,101552.06
2023-02-03T17:33:11.148Z,101571.38
2023-02-03T17:36:04.771Z,101574.13
2023-02-03T17:54:13.787Z,101650.03
2023-02-03T17:56:59.060Z,101658.19
2023-02-03T17:59:44.505Z,101658.63
2023-02-03T18:02:30.125Z,101671.25
2023-02-03T18:05:15.446Z,101676.50
2023-02-03T18:08:05.899Z,101676.84
2023-02-03T18:10:59.066Z,101671.63
2023-02-03T18:13:47.335Z,101675.16
2023-02-03T18:16:33.899Z,101691.09
2023-02-03T18:19:19.023Z,101684.16
2023-02-03T18:22:03.927Z,101690.88
2023-02-03T18:24:48.666Z,101705.78
2023-02-03T18:27:33.985Z,101704.16
2023-02-03T18:30:19.090Z,101701.81
2023-02-03T18:33:04.165Z,101710.50
2023-02-03T18:35:49.173Z,101717.25
2023-02-03T18:38:35.201Z,101713.13
2023-02-03T18:41:22.988Z,101718.84
2023-02-03T18:44:08.796Z,101719.00
2023-02-03T18:46:54.529Z,101711.66
2023-02-03T18:49:39.885Z,101725.25
2023-02-03T18:52:24.624Z,101737.81
2023-02-03T18:55:09.860Z,101739.66
2023-02-03T18:57:54.924Z,101738.56
2023-02-03T19:00:40.207Z,101730.84
2023-02-03T19:03:25.568Z,101739.38
2023-02-03T19:06:11.164Z,101753.25
2023-02-03T19:08:58.441Z,101756.78
2023-02-03T19:11:46.613Z,101752.38
2023-02-03T19:14:31.879Z,101768.53
2023-02-03T19:17:17.568Z,101778.97
2023-02-03T19:20:02.890Z,101788.44
2023-02-03T19:22:48.245Z,101780.28
2023-02-03T19:25:35.051Z,101794.81
2023-02-03T19:28:30.459Z,101802.53
2023-02-03T19:31:17.134Z,101812.97
2023-02-03T19:34:02.691Z,101820.03
2023-02-03T19:36:48.159Z,101820.41
2023-02-03T19:39:33.189Z,101818.72
2023-02-03T19:42:18.886Z,101818.00
2023-02-03T19:45:05.037Z,101810.44
2023-02-03T19:47:49.909Z,101811.00
2023-02-03T19:50:34.858Z,101813.09
2023-02-03T19:53:20.078Z,101806.50
2023-02-03T19:56:05.623Z,101819.28
2023-02-03T19:58:52.223Z,101827.09
2023-02-03T20:01:37.600Z,101817.44
2023-02-03T20:04:22.657Z,101818.09
2023-02-03T20:07:08.000Z,101830.94
2023-02-03T20:09:52.925Z,101841.09
2023-02-03T20:12:38.270Z,101852.97
2023-02-03T20:15:23.794Z,101850.66
2023-02-03T20:18:09.183Z,101855.88
2023-02-03T20:20:55.991Z,101848.16
2023-02-03T20:23:41.009Z,101861.88
2023-02-03T20:26:25.788Z,101880.38
2023-02-03T20:29:11.116Z,101878.94
2023-02-03T20:31:56.348Z,101882.44
2023-02-03T20:34:41.788Z,101895.16
2023-02-03T20:37:26.885Z,101901.56
2023-02-03T20:40:17.330Z,101912.13
2023-02-03T20:43:15.792Z,101913.66
2023-02-03T20:46:00.860Z,101934.94
2023-02-03T20:48:46.368Z,101950.53
2023-02-03T20:51:31.708Z,101943.78
2023-02-03T20:54:21.946Z,101942.47
2023-02-03T20:57:13.546Z,101948.66
2023-02-03T20:59:58.796Z,101941.78
2023-02-03T21:02:45.525Z,101939.91
2023-02-03T21:05:37.717Z,101955.97
2023-02-03T21:08:22.698Z,101955.88
2023-02-03T21:11:22.175Z,101957.88
2023-02-03T21:14:19.638Z,101969.03
2023-02-03T21:17:18.202Z,101968.97
2023-02-03T21:20:19.108Z,101980.13
2023-02-03T21:23:10.622Z,101985.88
2023-02-03T21:25:55.619Z,101982.91
2023-02-03T21:28:40.927Z,101989.63
2023-02-03T21:31:28.429Z,101991.06
2023-02-03T21:34:34.671Z,101994.44
2023-02-03T21:37:20.060Z,101998.44
2023-02-03T21:40:21.068Z,101999.25
2023-02-03T21:43:17.119Z,102010.22
2023-02-03T21:46:02.470Z,102013.84
2023-02-03T21:48:52.904Z,102002.66
2023-02-03T21:51:39.075Z,102016.28
2023-02-03T21:54:29.008Z,102016.47
2023-02-03T21:57:14.971Z,102025.59
2023-02-03T22:00:00.033Z,102025.41
2023-02-03T22:02:58.814Z,102035.63
2023-02-03T22:05:43.921Z,102030.91
2023-02-03T22:08:33.292Z,102035.63
2023-02-03T22:11:19.809Z,102053.59
2023-02-03T22:14:05.202Z,102059.69
2023-02-03T22:16:50.601Z,102063.94
2023-02-03T22:19:35.654Z,102069.88
2023-02-03T22:22:20.884Z,102077.75
2023-02-03T22:25:06.714Z,102083.00
2023-02-03T22:27:53.093Z,102082.25
2023-02-03T22:30:38.888Z,102085.91
2023-02-03T22:33:24.442Z,102083.19
2023-02-03T22:36:10.223Z,102086.44
2023-02-03T22:38:54.946Z,102078.81
2023-02-03T22:41:40.422Z,102076.19
2023-02-03T22:44:25.298Z,102071.13
2023-02-03T22:47:10.842Z,102080.16
2023-02-03T22:49:56.170Z,102072.53
2023-02-03T22:52:41.618Z,102077.75
2023-02-03T22:55:26.900Z,102068.19
2023-02-03T22:58:12.038Z,102072.88
2023-02-03T23:00:57.385Z,102086.88
2023-02-03T23:03:42.808Z,102089.63
2023-02-03T23:06:28.156Z,102102.56
2023-02-03T23:09:13.718Z,102095.56
2023-02-03T23:11:58.890Z,102102.44
2023-02-03T23:14:44.515Z,102108.63
2023-02-03T23:17:29.459Z,102106.88
2023-02-03T23:20:16.773Z,102098.47
2023-02-03T23:23:01.773Z,102105.75
2023-02-03T23:25:47.173Z,102114.69
2023-02-03T23:28:32.113Z,102116.56
2023-02-03T23:31:18.078Z,102126.31
2023-02-03T23:34:03.461Z,102140.22
2023-02-03T23:36:48.709Z,102142.22
2023-02-03T23:39:33.576Z,102159.09
2023-02-03T23:42:18.996Z,102167.78
2023-02-03T23:45:04.903Z,102159.63
2023-02-03T23:47:50.381Z,102160.81
2023-02-03T23:50:35.952Z,102156.19
2023-02-03T23:53:21.053Z,102152.13
2023-02-03T23:56:06.048Z,102171.06
2023-02-03T23:58:51.348Z,102163.72
